sensor_id;sensor_type;location;lat;lon;timestamp;P1;durP1;ratioP1;P2;durP2;ratioP2
62707;SDS011;48769;51.624;5.886;2023-03-25T00:01:51;8.38;;;2.33;;
62707;SDS011;48769;51.624;5.886;2023-03-25T00:04:16;10.80;;;1.98;;
62707;SDS011;48769;51.624;5.886;2023-03-25T00:06:41;7.90;;;2.42;;
62707;SDS011;48769;51.624;5.886;2023-03-25T00:09:07;7.90;;;1.75;;
62707;SDS011;48769;51.624;5.886;2023-03-25T00:11:32;9.35;;;2.92;;
62707;SDS011;48769;51.624;5.886;2023-03-25T00:13:57;10.63;;;2.00;;
62707;SDS011;48769;51.624;5.886;2023-03-25T00:16:23;10.60;;;2.50;;
62707;SDS011;48769;51.624;5.886;2023-03-25T00:18:48;15.52;;;2.97;;
62707;SDS011;48769;51.624;5.886;2023-03-25T00:21:14;9.40;;;2.00;;
62707;SDS011;48769;51.624;5.886;2023-03-25T00:23:39;9.10;;;2.20;;
62707;SDS011;48769;51.624;5.886;2023-03-25T00:26:05;10.02;;;2.08;;
62707;SDS011;48769;51.624;5.886;2023-03-25T00:28:32;11.48;;;2.03;;
62707;SDS011;48769;51.624;5.886;2023-03-25T00:31:00;14.32;;;2.33;;
62707;SDS011;48769;51.624;5.886;2023-03-25T00:33:29;10.95;;;2.45;;
62707;SDS011;48769;51.624;5.886;2023-03-25T00:35:55;12.30;;;2.30;;
62707;SDS011;48769;51.624;5.886;2023-03-25T00:38:26;9.23;;;1.95;;
62707;SDS011;48769;51.624;5.886;2023-03-25T00:40:57;16.92;;;2.67;;
62707;SDS011;48769;51.624;5.886;2023-03-25T00:43:24;10.38;;;2.10;;
62707;SDS011;48769;51.624;5.886;2023-03-25T00:45:53;11.95;;;2.80;;
62707;SDS011;48769;51.624;5.886;2023-03-25T00:48:19;14.88;;;2.65;;
62707;SDS011;48769;51.624;5.886;2023-03-25T00:50:44;10.80;;;2.25;;
62707;SDS011;48769;51.624;5.886;2023-03-25T00:53:12;10.45;;;2.72;;
62707;SDS011;48769;51.624;5.886;2023-03-25T00:55:37;11.35;;;2.63;;
62707;SDS011;48769;51.624;5.886;2023-03-25T00:58:03;7.88;;;1.77;;
62707;SDS011;48769;51.624;5.886;2023-03-25T01:00:29;8.43;;;2.35;;
62707;SDS011;48769;51.624;5.886;2023-03-25T01:02:55;11.32;;;2.83;;
62707;SDS011;48769;51.624;5.886;2023-03-25T01:05:20;12.68;;;2.63;;
62707;SDS011;48769;51.624;5.886;2023-03-25T01:07:45;7.85;;;2.00;;
62707;SDS011;48769;51.624;5.886;2023-03-25T01:10:13;8.68;;;2.38;;
62707;SDS011;48769;51.624;5.886;2023-03-25T01:12:39;6.40;;;1.65;;
62707;SDS011;48769;51.624;5.886;2023-03-25T01:15:04;10.38;;;1.80;;
62707;SDS011;48769;51.624;5.886;2023-03-25T01:17:30;19.90;;;2.65;;
62707;SDS011;48769;51.624;5.886;2023-03-25T01:19:55;8.63;;;2.00;;
62707;SDS011;48769;51.624;5.886;2023-03-25T01:22:21;15.13;;;2.47;;
62707;SDS011;48769;51.624;5.886;2023-03-25T01:24:46;9.23;;;1.80;;
62707;SDS011;48769;51.624;5.886;2023-03-25T01:27:11;10.07;;;1.98;;
62707;SDS011;48769;51.624;5.886;2023-03-25T01:29:37;12.63;;;1.92;;
62707;SDS011;48769;51.624;5.886;2023-03-25T01:32:02;9.23;;;1.65;;
62707;SDS011;48769;51.624;5.886;2023-03-25T01:34:28;10.27;;;2.28;;
62707;SDS011;48769;51.624;5.886;2023-03-25T01:36:55;9.60;;;1.90;;
62707;SDS011;48769;51.624;5.886;2023-03-25T01:39:22;5.75;;;1.67;;
62707;SDS011;48769;51.624;5.886;2023-03-25T01:41:47;6.75;;;1.98;;
62707;SDS011;48769;51.624;5.886;2023-03-25T01:46:46;7.57;;;1.95;;
62707;SDS011;48769;51.624;5.886;2023-03-25T01:49:14;5.03;;;1.80;;
62707;SDS011;48769;51.624;5.886;2023-03-25T01:51:46;6.72;;;1.75;;
62707;SDS011;48769;51.624;5.886;2023-03-25T01:54:17;10.10;;;2.70;;
62707;SDS011;48769;51.624;5.886;2023-03-25T01:56:46;8.23;;;2.03;;
62707;SDS011;48769;51.624;5.886;2023-03-25T01:59:14;6.35;;;1.83;;
62707;SDS011;48769;51.624;5.886;2023-03-25T02:01:42;5.43;;;2.08;;
62707;SDS011;48769;51.624;5.886;2023-03-25T02:04:10;10.15;;;2.65;;
62707;SDS011;48769;51.624;5.886;2023-03-25T02:06:41;7.32;;;1.52;;
62707;SDS011;48769;51.624;5.886;2023-03-25T02:09:08;8.30;;;1.85;;
62707;SDS011;48769;51.624;5.886;2023-03-25T02:11:36;8.68;;;1.90;;
62707;SDS011;48769;51.624;5.886;2023-03-25T02:14:03;8.85;;;2.28;;
62707;SDS011;48769;51.624;5.886;2023-03-25T02:16:44;11.75;;;2.17;;
62707;SDS011;48769;51.624;5.886;2023-03-25T02:19:45;6.25;;;1.90;;
62707;SDS011;48769;51.624;5.886;2023-03-25T02:22:35;4.65;;;1.65;;
62707;SDS011;48769;51.624;5.886;2023-03-25T02:33:38;7.20;;;1.70;;
62707;SDS011;48769;51.624;5.886;2023-03-25T02:36:38;8.32;;;1.58;;
62707;SDS011;48769;51.624;5.886;2023-03-25T02:39:21;7.88;;;1.88;;
62707;SDS011;48769;51.624;5.886;2023-03-25T02:42:15;9.25;;;1.63;;
62707;SDS011;48769;51.624;5.886;2023-03-25T02:45:01;8.13;;;1.77;;
62707;SDS011;48769;51.624;5.886;2023-03-25T02:50:03;4.53;;;1.60;;
62707;SDS011;48769;51.624;5.886;2023-03-25T02:52:37;7.35;;;2.20;;
62707;SDS011;48769;51.624;5.886;2023-03-25T02:55:07;5.47;;;1.55;;
62707;SDS011;48769;51.624;5.886;2023-03-25T02:57:37;6.00;;;2.00;;
62707;SDS011;48769;51.624;5.886;2023-03-25T03:00:05;11.35;;;1.95;;
62707;SDS011;48769;51.624;5.886;2023-03-25T03:02:39;9.32;;;2.15;;
62707;SDS011;48769;51.624;5.886;2023-03-25T03:05:22;9.35;;;2.50;;
62707;SDS011;48769;51.624;5.886;2023-03-25T03:11:04;5.50;;;1.40;;
62707;SDS011;48769;51.624;5.886;2023-03-25T03:16:27;10.65;;;1.85;;
62707;SDS011;48769;51.624;5.886;2023-03-25T03:21:36;13.95;;;1.98;;
62707;SDS011;48769;51.624;5.886;2023-03-25T03:24:15;8.95;;;1.50;;
62707;SDS011;48769;51.624;5.886;2023-03-25T03:29:43;8.25;;;2.03;;
62707;SDS011;48769;51.624;5.886;2023-03-25T03:34:46;7.93;;;2.20;;
62707;SDS011;48769;51.624;5.886;2023-03-25T03:37:17;7.10;;;1.95;;
62707;SDS011;48769;51.624;5.886;2023-03-25T03:39:48;8.55;;;2.58;;
62707;SDS011;48769;51.624;5.886;2023-03-25T03:42:24;10.07;;;2.20;;
62707;SDS011;48769;51.624;5.886;2023-03-25T03:44:52;16.10;;;2.53;;
62707;SDS011;48769;51.624;5.886;2023-03-25T03:47:21;14.73;;;2.88;;
62707;SDS011;48769;51.624;5.886;2023-03-25T03:49:53;13.38;;;2.38;;
62707;SDS011;48769;51.624;5.886;2023-03-25T03:52:42;14.02;;;2.67;;
62707;SDS011;48769;51.624;5.886;2023-03-25T03:55:22;13.90;;;2.83;;
62707;SDS011;48769;51.624;5.886;2023-03-25T03:58:01;12.98;;;2.20;;
62707;SDS011;48769;51.624;5.886;2023-03-25T04:00:57;12.75;;;2.63;;
62707;SDS011;48769;51.624;5.886;2023-03-25T04:03:36;15.75;;;2.97;;
62707;SDS011;48769;51.624;5.886;2023-03-25T04:06:18;14.68;;;2.85;;
62707;SDS011;48769;51.624;5.886;2023-03-25T04:08:52;11.75;;;2.17;;
62707;SDS011;48769;51.624;5.886;2023-03-25T04:11:39;11.45;;;2.38;;
62707;SDS011;48769;51.624;5.886;2023-03-25T04:14:10;12.32;;;2.55;;
62707;SDS011;48769;51.624;5.886;2023-03-25T04:16:37;15.18;;;3.10;;
62707;SDS011;48769;51.624;5.886;2023-03-25T04:19:03;13.43;;;2.83;;
62707;SDS011;48769;51.624;5.886;2023-03-25T04:21:30;14.45;;;2.72;;
62707;SDS011;48769;51.624;5.886;2023-03-25T04:23:56;10.02;;;2.00;;
62707;SDS011;48769;51.624;5.886;2023-03-25T04:26:25;12.35;;;2.45;;
62707;SDS011;48769;51.624;5.886;2023-03-25T04:28:57;11.52;;;2.50;;
62707;SDS011;48769;51.624;5.886;2023-03-25T04:31:25;14.02;;;2.50;;
62707;SDS011;48769;51.624;5.886;2023-03-25T04:33:55;9.93;;;2.58;;
62707;SDS011;48769;51.624;5.886;2023-03-25T04:36:21;14.23;;;2.58;;
62707;SDS011;48769;51.624;5.886;2023-03-25T04:38:47;12.75;;;2.25;;
62707;SDS011;48769;51.624;5.886;2023-03-25T04:41:12;12.32;;;2.00;;
62707;SDS011;48769;51.624;5.886;2023-03-25T04:43:39;8.90;;;2.97;;
62707;SDS011;48769;51.624;5.886;2023-03-25T04:46:05;7.40;;;1.75;;
62707;SDS011;48769;51.624;5.886;2023-03-25T04:48:34;11.95;;;2.45;;
62707;SDS011;48769;51.624;5.886;2023-03-25T04:51:05;13.55;;;2.20;;
62707;SDS011;48769;51.624;5.886;2023-03-25T04:53:34;15.48;;;2.83;;
62707;SDS011;48769;51.624;5.886;2023-03-25T04:56:00;9.70;;;2.38;;
62707;SDS011;48769;51.624;5.886;2023-03-25T04:58:26;10.60;;;2.20;;
62707;SDS011;48769;51.624;5.886;2023-03-25T05:00:52;11.70;;;2.00;;
62707;SDS011;48769;51.624;5.886;2023-03-25T05:03:18;15.05;;;2.40;;
62707;SDS011;48769;51.624;5.886;2023-03-25T05:05:48;10.68;;;2.08;;
62707;SDS011;48769;51.624;5.886;2023-03-25T05:08:15;10.65;;;2.20;;
62707;SDS011;48769;51.624;5.886;2023-03-25T05:10:41;8.18;;;1.70;;
62707;SDS011;48769;51.624;5.886;2023-03-25T05:13:07;8.18;;;2.50;;
62707;SDS011;48769;51.624;5.886;2023-03-25T05:15:33;8.30;;;2.25;;
62707;SDS011;48769;51.624;5.886;2023-03-25T05:18:04;12.00;;;2.20;;
62707;SDS011;48769;51.624;5.886;2023-03-25T05:20:37;7.45;;;1.90;;
62707;SDS011;48769;51.624;5.886;2023-03-25T05:23:07;11.38;;;2.28;;
62707;SDS011;48769;51.624;5.886;2023-03-25T05:25:38;10.95;;;2.17;;
62707;SDS011;48769;51.624;5.886;2023-03-25T05:28:04;8.98;;;2.22;;
62707;SDS011;48769;51.624;5.886;2023-03-25T05:30:30;10.63;;;2.13;;
62707;SDS011;48769;51.624;5.886;2023-03-25T05:32:56;14.00;;;2.40;;
62707;SDS011;48769;51.624;5.886;2023-03-25T05:35:24;11.52;;;2.47;;
62707;SDS011;48769;51.624;5.886;2023-03-25T05:37:50;10.60;;;2.20;;
62707;SDS011;48769;51.624;5.886;2023-03-25T05:40:16;22.02;;;3.05;;
62707;SDS011;48769;51.624;5.886;2023-03-25T05:42:42;16.00;;;2.25;;
62707;SDS011;48769;51.624;5.886;2023-03-25T05:45:11;10.70;;;2.90;;
62707;SDS011;48769;51.624;5.886;2023-03-25T05:47:36;14.20;;;2.85;;
62707;SDS011;48769;51.624;5.886;2023-03-25T05:50:01;15.10;;;2.70;;
62707;SDS011;48769;51.624;5.886;2023-03-25T05:52:27;9.48;;;2.78;;
62707;SDS011;48769;51.624;5.886;2023-03-25T05:54:52;12.60;;;2.50;;
62707;SDS011;48769;51.624;5.886;2023-03-25T05:57:17;11.85;;;2.55;;
62707;SDS011;48769;51.624;5.886;2023-03-25T05:59:43;11.70;;;2.75;;
62707;SDS011;48769;51.624;5.886;2023-03-25T06:02:12;9.95;;;2.13;;
62707;SDS011;48769;51.624;5.886;2023-03-25T06:04:39;11.90;;;2.65;;
62707;SDS011;48769;51.624;5.886;2023-03-25T06:07:12;16.13;;;2.97;;
62707;SDS011;48769;51.624;5.886;2023-03-25T06:09:43;11.05;;;1.90;;
62707;SDS011;48769;51.624;5.886;2023-03-25T06:12:13;10.80;;;1.75;;
62707;SDS011;48769;51.624;5.886;2023-03-25T06:14:40;11.45;;;2.22;;
62707;SDS011;48769;51.624;5.886;2023-03-25T06:17:07;11.25;;;2.08;;
62707;SDS011;48769;51.624;5.886;2023-03-25T06:19:34;9.00;;;1.85;;
62707;SDS011;48769;51.624;5.886;2023-03-25T06:22:04;6.63;;;1.58;;
62707;SDS011;48769;51.624;5.886;2023-03-25T06:24:33;18.70;;;2.58;;
62707;SDS011;48769;51.624;5.886;2023-03-25T06:27:03;13.63;;;1.98;;
62707;SDS011;48769;51.624;5.886;2023-03-25T06:29:33;15.18;;;2.85;;
62707;SDS011;48769;51.624;5.886;2023-03-25T06:32:01;11.20;;;2.25;;
62707;SDS011;48769;51.624;5.886;2023-03-25T06:34:27;12.02;;;1.83;;
62707;SDS011;48769;51.624;5.886;2023-03-25T06:36:52;9.50;;;1.90;;
62707;SDS011;48769;51.624;5.886;2023-03-25T06:39:18;16.42;;;3.45;;
62707;SDS011;48769;51.624;5.886;2023-03-25T06:41:43;10.77;;;2.22;;
62707;SDS011;48769;51.624;5.886;2023-03-25T06:44:09;19.65;;;3.08;;
62707;SDS011;48769;51.624;5.886;2023-03-25T06:46:34;13.23;;;2.50;;
62707;SDS011;48769;51.624;5.886;2023-03-25T06:48:59;12.43;;;2.10;;
62707;SDS011;48769;51.624;5.886;2023-03-25T06:51:25;10.40;;;2.22;;
62707;SDS011;48769;51.624;5.886;2023-03-25T06:53:51;12.45;;;2.67;;
62707;SDS011;48769;51.624;5.886;2023-03-25T06:56:16;7.25;;;2.28;;
62707;SDS011;48769;51.624;5.886;2023-03-25T06:58:41;9.73;;;2.00;;
62707;SDS011;48769;51.624;5.886;2023-03-25T07:01:07;17.40;;;3.20;;
62707;SDS011;48769;51.624;5.886;2023-03-25T07:03:33;11.98;;;2.63;;
62707;SDS011;48769;51.624;5.886;2023-03-25T07:06:00;13.55;;;2.35;;
62707;SDS011;48769;51.624;5.886;2023-03-25T07:08:26;15.23;;;2.40;;
62707;SDS011;48769;51.624;5.886;2023-03-25T07:10:51;11.95;;;2.10;;
62707;SDS011;48769;51.624;5.886;2023-03-25T07:13:17;9.90;;;2.17;;
62707;SDS011;48769;51.624;5.886;2023-03-25T07:15:42;11.63;;;2.65;;
62707;SDS011;48769;51.624;5.886;2023-03-25T07:18:07;13.50;;;2.47;;
62707;SDS011;48769;51.624;5.886;2023-03-25T07:20:32;11.10;;;3.00;;
62707;SDS011;48769;51.624;5.886;2023-03-25T07:22:58;12.23;;;2.90;;
62707;SDS011;48769;51.624;5.886;2023-03-25T07:25:23;10.70;;;2.38;;
62707;SDS011;48769;51.624;5.886;2023-03-25T07:27:48;14.80;;;3.20;;
62707;SDS011;48769;51.624;5.886;2023-03-25T07:30:14;9.18;;;2.33;;
62707;SDS011;48769;51.624;5.886;2023-03-25T07:32:39;16.15;;;3.10;;
62707;SDS011;48769;51.624;5.886;2023-03-25T07:35:05;17.00;;;3.33;;
62707;SDS011;48769;51.624;5.886;2023-03-25T07:37:30;18.40;;;3.65;;
62707;SDS011;48769;51.624;5.886;2023-03-25T07:39:56;14.63;;;3.17;;
62707;SDS011;48769;51.624;5.886;2023-03-25T07:42:21;22.30;;;3.30;;
62707;SDS011;48769;51.624;5.886;2023-03-25T07:44:46;15.65;;;3.35;;
62707;SDS011;48769;51.624;5.886;2023-03-25T07:47:12;19.80;;;3.25;;
62707;SDS011;48769;51.624;5.886;2023-03-25T07:49:37;17.60;;;4.07;;
62707;SDS011;48769;51.624;5.886;2023-03-25T07:52:05;20.45;;;3.97;;
62707;SDS011;48769;51.624;5.886;2023-03-25T07:54:31;16.60;;;2.65;;
62707;SDS011;48769;51.624;5.886;2023-03-25T07:56:56;20.23;;;3.20;;
62707;SDS011;48769;51.624;5.886;2023-03-25T07:59:22;21.60;;;3.53;;
62707;SDS011;48769;51.624;5.886;2023-03-25T08:01:48;15.38;;;2.78;;
62707;SDS011;48769;51.624;5.886;2023-03-25T08:04:13;27.20;;;3.58;;
62707;SDS011;48769;51.624;5.886;2023-03-25T08:06:39;16.08;;;3.80;;
62707;SDS011;48769;51.624;5.886;2023-03-25T08:09:05;16.00;;;3.22;;
62707;SDS011;48769;51.624;5.886;2023-03-25T08:11:31;16.75;;;3.30;;
62707;SDS011;48769;51.624;5.886;2023-03-25T08:13:56;20.63;;;3.65;;
62707;SDS011;48769;51.624;5.886;2023-03-25T08:16:22;19.80;;;3.60;;
62707;SDS011;48769;51.624;5.886;2023-03-25T08:18:47;20.85;;;4.88;;
62707;SDS011;48769;51.624;5.886;2023-03-25T08:21:16;21.05;;;3.63;;
62707;SDS011;48769;51.624;5.886;2023-03-25T08:23:49;17.50;;;3.53;;
62707;SDS011;48769;51.624;5.886;2023-03-25T08:26:15;15.30;;;3.75;;
62707;SDS011;48769;51.624;5.886;2023-03-25T08:28:41;13.32;;;3.15;;
62707;SDS011;48769;51.624;5.886;2023-03-25T08:31:06;10.70;;;3.17;;
62707;SDS011;48769;51.624;5.886;2023-03-25T08:33:32;17.98;;;2.90;;
62707;SDS011;48769;51.624;5.886;2023-03-25T08:36:05;15.63;;;3.23;;
62707;SDS011;48769;51.624;5.886;2023-03-25T08:38:31;15.05;;;3.33;;
62707;SDS011;48769;51.624;5.886;2023-03-25T08:40:57;17.85;;;3.45;;
62707;SDS011;48769;51.624;5.886;2023-03-25T08:43:23;15.00;;;4.45;;
62707;SDS011;48769;51.624;5.886;2023-03-25T08:45:49;25.55;;;3.90;;
62707;SDS011;48769;51.624;5.886;2023-03-25T08:48:14;17.45;;;3.63;;
62707;SDS011;48769;51.624;5.886;2023-03-25T08:50:40;16.30;;;3.97;;
62707;SDS011;48769;51.624;5.886;2023-03-25T08:53:05;13.63;;;2.85;;
62707;SDS011;48769;51.624;5.886;2023-03-25T08:55:30;15.80;;;2.92;;
62707;SDS011;48769;51.624;5.886;2023-03-25T08:57:56;15.73;;;3.30;;
62707;SDS011;48769;51.624;5.886;2023-03-25T09:00:25;15.95;;;4.07;;
62707;SDS011;48769;51.624;5.886;2023-03-25T09:02:51;18.98;;;3.55;;
62707;SDS011;48769;51.624;5.886;2023-03-25T09:05:16;17.42;;;4.03;;
62707;SDS011;48769;51.624;5.886;2023-03-25T09:07:42;18.25;;;3.45;;
62707;SDS011;48769;51.624;5.886;2023-03-25T09:10:08;16.30;;;4.68;;
62707;SDS011;48769;51.624;5.886;2023-03-25T09:12:34;14.60;;;3.55;;
62707;SDS011;48769;51.624;5.886;2023-03-25T09:14:59;21.33;;;4.53;;
62707;SDS011;48769;51.624;5.886;2023-03-25T09:17:25;21.63;;;3.95;;
62707;SDS011;48769;51.624;5.886;2023-03-25T09:19:51;18.90;;;4.47;;
62707;SDS011;48769;51.624;5.886;2023-03-25T09:22:16;22.45;;;3.75;;
62707;SDS011;48769;51.624;5.886;2023-03-25T09:24:42;23.15;;;4.60;;
62707;SDS011;48769;51.624;5.886;2023-03-25T09:27:07;22.95;;;4.47;;
62707;SDS011;48769;51.624;5.886;2023-03-25T09:29:32;21.20;;;3.90;;
62707;SDS011;48769;51.624;5.886;2023-03-25T09:31:58;22.42;;;4.40;;
62707;SDS011;48769;51.624;5.886;2023-03-25T09:34:25;15.00;;;3.75;;
62707;SDS011;48769;51.624;5.886;2023-03-25T09:36:51;26.42;;;3.58;;
62707;SDS011;48769;51.624;5.886;2023-03-25T09:39:17;14.65;;;4.13;;
62707;SDS011;48769;51.624;5.886;2023-03-25T09:44:30;17.83;;;3.83;;
62707;SDS011;48769;51.624;5.886;2023-03-25T09:47:01;24.95;;;4.15;;
62707;SDS011;48769;51.624;5.886;2023-03-25T09:49:38;20.45;;;4.75;;
62707;SDS011;48769;51.624;5.886;2023-03-25T09:52:14;14.48;;;4.05;;
62707;SDS011;48769;51.624;5.886;2023-03-25T09:54:49;21.27;;;4.20;;
62707;SDS011;48769;51.624;5.886;2023-03-25T09:57:23;22.35;;;4.25;;
62707;SDS011;48769;51.624;5.886;2023-03-25T09:59:53;17.38;;;4.28;;
62707;SDS011;48769;51.624;5.886;2023-03-25T10:07:57;18.00;;;3.95;;
62707;SDS011;48769;51.624;5.886;2023-03-25T10:21:52;23.35;;;4.72;;
62707;SDS011;48769;51.624;5.886;2023-03-25T10:24:35;23.00;;;4.47;;
62707;SDS011;48769;51.624;5.886;2023-03-25T10:29:52;12.70;;;4.00;;
62707;SDS011;48769;51.624;5.886;2023-03-25T10:32:28;16.05;;;4.18;;
62707;SDS011;48769;51.624;5.886;2023-03-25T10:34:58;18.35;;;4.43;;
62707;SDS011;48769;51.624;5.886;2023-03-25T10:37:29;19.80;;;3.65;;
62707;SDS011;48769;51.624;5.886;2023-03-25T10:39:58;22.75;;;4.63;;
62707;SDS011;48769;51.624;5.886;2023-03-25T10:42:43;24.42;;;4.15;;
62707;SDS011;48769;51.624;5.886;2023-03-25T10:45:30;22.25;;;5.45;;
62707;SDS011;48769;51.624;5.886;2023-03-25T10:48:39;29.02;;;5.60;;
62707;SDS011;48769;51.624;5.886;2023-03-25T10:50:45;23.17;;;6.20;;
62707;SDS011;48769;51.624;5.886;2023-03-25T10:53:18;25.20;;;5.88;;
62707;SDS011;48769;51.624;5.886;2023-03-25T10:55:50;26.77;;;5.97;;
62707;SDS011;48769;51.624;5.886;2023-03-25T10:58:20;25.88;;;6.20;;
62707;SDS011;48769;51.624;5.886;2023-03-25T11:00:47;23.83;;;6.55;;
62707;SDS011;48769;51.624;5.886;2023-03-25T11:03:25;28.52;;;7.75;;
62707;SDS011;48769;51.624;5.886;2023-03-25T11:05:56;34.83;;;9.63;;
62707;SDS011;48769;51.624;5.886;2023-03-25T11:08:21;26.80;;;7.70;;
62707;SDS011;48769;51.624;5.886;2023-03-25T11:10:48;23.88;;;5.90;;
62707;SDS011;48769;51.624;5.886;2023-03-25T11:13:19;23.55;;;5.57;;
62707;SDS011;48769;51.624;5.886;2023-03-25T11:15:49;25.98;;;6.72;;
62707;SDS011;48769;51.624;5.886;2023-03-25T11:20:49;24.48;;;6.82;;
62707;SDS011;48769;51.624;5.886;2023-03-25T11:23:31;22.40;;;7.15;;
62707;SDS011;48769;51.624;5.886;2023-03-25T11:26:04;27.60;;;6.97;;
62707;SDS011;48769;51.624;5.886;2023-03-25T11:31:10;26.92;;;6.65;;
62707;SDS011;48769;51.624;5.886;2023-03-25T11:34:04;27.45;;;7.40;;
62707;SDS011;48769;51.624;5.886;2023-03-25T11:36:36;24.48;;;6.93;;
62707;SDS011;48769;51.624;5.886;2023-03-25T11:39:15;23.52;;;5.93;;
62707;SDS011;48769;51.624;5.886;2023-03-25T11:41:43;14.52;;;4.38;;
62707;SDS011;48769;51.624;5.886;2023-03-25T11:44:17;19.95;;;4.15;;
62707;SDS011;48769;51.624;5.886;2023-03-25T11:46:53;15.13;;;3.42;;
62707;SDS011;48769;51.624;5.886;2023-03-25T11:49:22;11.13;;;2.60;;
62707;SDS011;48769;51.624;5.886;2023-03-25T11:51:50;13.15;;;2.53;;
62707;SDS011;48769;51.624;5.886;2023-03-25T11:54:21;11.45;;;2.80;;
62707;SDS011;48769;51.624;5.886;2023-03-25T11:56:49;13.05;;;2.63;;
62707;SDS011;48769;51.624;5.886;2023-03-25T11:59:25;11.23;;;2.03;;
62707;SDS011;48769;51.624;5.886;2023-03-25T12:02:00;11.90;;;2.38;;
62707;SDS011;48769;51.624;5.886;2023-03-25T12:04:28;9.65;;;2.30;;
62707;SDS011;48769;51.624;5.886;2023-03-25T12:09:32;16.20;;;2.28;;
62707;SDS011;48769;51.624;5.886;2023-03-25T12:14:48;12.23;;;2.47;;
62707;SDS011;48769;51.624;5.886;2023-03-25T12:20:57;14.52;;;2.90;;
62707;SDS011;48769;51.624;5.886;2023-03-25T12:29:45;20.52;;;3.10;;
62707;SDS011;48769;51.624;5.886;2023-03-25T12:32:37;14.13;;;3.67;;
62707;SDS011;48769;51.624;5.886;2023-03-25T12:40:49;20.65;;;3.83;;
62707;SDS011;48769;51.624;5.886;2023-03-25T13:00:36;12.32;;;2.75;;
62707;SDS011;48769;51.624;5.886;2023-03-25T13:08:36;8.18;;;2.30;;
62707;SDS011;48769;51.624;5.886;2023-03-25T13:11:09;11.93;;;2.58;;
62707;SDS011;48769;51.624;5.886;2023-03-25T13:13:41;9.65;;;2.65;;
62707;SDS011;48769;51.624;5.886;2023-03-25T13:16:12;17.73;;;3.03;;
62707;SDS011;48769;51.624;5.886;2023-03-25T13:18:59;16.17;;;3.55;;
62707;SDS011;48769;51.624;5.886;2023-03-25T13:21:40;8.75;;;2.60;;
62707;SDS011;48769;51.624;5.886;2023-03-25T13:26:55;12.55;;;2.33;;
62707;SDS011;48769;51.624;5.886;2023-03-25T13:29:27;14.68;;;2.97;;
62707;SDS011;48769;51.624;5.886;2023-03-25T13:31:56;14.15;;;3.33;;
62707;SDS011;48769;51.624;5.886;2023-03-25T13:34:48;11.18;;;2.58;;
62707;SDS011;48769;51.624;5.886;2023-03-25T13:40:19;18.95;;;3.75;;
62707;SDS011;48769;51.624;5.886;2023-03-25T13:45:23;16.45;;;3.47;;
62707;SDS011;48769;51.624;5.886;2023-03-25T13:50:31;10.10;;;3.10;;
62707;SDS011;48769;51.624;5.886;2023-03-25T13:52:59;20.15;;;3.13;;
62707;SDS011;48769;51.624;5.886;2023-03-25T13:55:54;15.20;;;3.42;;
62707;SDS011;48769;51.624;5.886;2023-03-25T14:06:31;13.63;;;3.10;;
62707;SDS011;48769;51.624;5.886;2023-03-25T14:12:13;15.02;;;2.38;;
62707;SDS011;48769;51.624;5.886;2023-03-25T14:14:43;11.45;;;1.92;;
62707;SDS011;48769;51.624;5.886;2023-03-25T14:17:11;9.25;;;2.35;;
62707;SDS011;48769;51.624;5.886;2023-03-25T14:19:40;13.30;;;2.30;;
62707;SDS011;48769;51.624;5.886;2023-03-25T14:22:15;15.10;;;2.05;;
62707;SDS011;48769;51.624;5.886;2023-03-25T14:24:42;11.77;;;2.20;;
62707;SDS011;48769;51.624;5.886;2023-03-25T14:27:16;16.15;;;3.10;;
62707;SDS011;48769;51.624;5.886;2023-03-25T14:29:58;7.75;;;2.13;;
62707;SDS011;48769;51.624;5.886;2023-03-25T14:43:19;11.63;;;2.33;;
62707;SDS011;48769;51.624;5.886;2023-03-25T14:46:00;11.93;;;2.25;;
62707;SDS011;48769;51.624;5.886;2023-03-25T14:48:36;11.90;;;1.63;;
62707;SDS011;48769;51.624;5.886;2023-03-25T14:56:41;18.73;;;3.22;;
62707;SDS011;48769;51.624;5.886;2023-03-25T14:59:17;11.55;;;2.40;;
62707;SDS011;48769;51.624;5.886;2023-03-25T15:01:48;11.20;;;2.22;;
62707;SDS011;48769;51.624;5.886;2023-03-25T15:06:43;15.48;;;3.35;;
62707;SDS011;48769;51.624;5.886;2023-03-25T15:09:11;9.50;;;2.45;;
62707;SDS011;48769;51.624;5.886;2023-03-25T15:11:41;7.30;;;2.45;;
62707;SDS011;48769;51.624;5.886;2023-03-25T15:14:10;10.65;;;2.30;;
62707;SDS011;48769;51.624;5.886;2023-03-25T15:19:12;12.20;;;1.88;;
62707;SDS011;48769;51.624;5.886;2023-03-25T15:22:24;7.53;;;1.80;;
62707;SDS011;48769;51.624;5.886;2023-03-25T15:24:28;11.50;;;2.42;;
62707;SDS011;48769;51.624;5.886;2023-03-25T15:26:59;13.63;;;3.50;;
62707;SDS011;48769;51.624;5.886;2023-03-25T15:30:17;11.35;;;2.13;;
62707;SDS011;48769;51.624;5.886;2023-03-25T15:38:09;11.13;;;2.00;;
62707;SDS011;48769;51.624;5.886;2023-03-25T15:43:52;7.47;;;1.65;;
62707;SDS011;48769;51.624;5.886;2023-03-25T15:54:28;12.23;;;2.60;;
62707;SDS011;48769;51.624;5.886;2023-03-25T15:57:13;11.57;;;2.20;;
62707;SDS011;48769;51.624;5.886;2023-03-25T16:02:52;13.73;;;3.47;;
62707;SDS011;48769;51.624;5.886;2023-03-25T16:05:24;11.45;;;3.58;;
62707;SDS011;48769;51.624;5.886;2023-03-25T16:07:50;11.48;;;2.70;;
62707;SDS011;48769;51.624;5.886;2023-03-25T16:10:25;19.27;;;2.65;;
62707;SDS011;48769;51.624;5.886;2023-03-25T16:12:56;16.00;;;3.15;;
62707;SDS011;48769;51.624;5.886;2023-03-25T16:15:27;15.65;;;3.63;;
62707;SDS011;48769;51.624;5.886;2023-03-25T16:17:55;17.80;;;2.70;;
62707;SDS011;48769;51.624;5.886;2023-03-25T16:20:23;17.80;;;3.40;;
62707;SDS011;48769;51.624;5.886;2023-03-25T16:22:52;18.83;;;3.40;;
62707;SDS011;48769;51.624;5.886;2023-03-25T16:25:41;12.73;;;3.35;;
62707;SDS011;48769;51.624;5.886;2023-03-25T16:28:07;13.05;;;2.20;;
62707;SDS011;48769;51.624;5.886;2023-03-25T16:30:40;16.80;;;3.67;;
62707;SDS011;48769;51.624;5.886;2023-03-25T16:36:14;16.73;;;2.60;;
62707;SDS011;48769;51.624;5.886;2023-03-25T16:38:28;15.73;;;3.45;;
62707;SDS011;48769;51.624;5.886;2023-03-25T16:41:02;10.60;;;2.45;;
62707;SDS011;48769;51.624;5.886;2023-03-25T16:43:31;15.35;;;2.83;;
62707;SDS011;48769;51.624;5.886;2023-03-25T16:45:58;17.35;;;3.15;;
62707;SDS011;48769;51.624;5.886;2023-03-25T16:50:53;13.80;;;2.85;;
62707;SDS011;48769;51.624;5.886;2023-03-25T16:53:21;13.13;;;3.22;;
62707;SDS011;48769;51.624;5.886;2023-03-25T16:55:49;8.85;;;2.67;;
62707;SDS011;48769;51.624;5.886;2023-03-25T16:58:23;13.48;;;2.67;;
62707;SDS011;48769;51.624;5.886;2023-03-25T17:00:51;15.18;;;2.92;;
62707;SDS011;48769;51.624;5.886;2023-03-25T17:03:36;13.07;;;2.60;;
62707;SDS011;48769;51.624;5.886;2023-03-25T17:06:09;11.27;;;2.92;;
62707;SDS011;48769;51.624;5.886;2023-03-25T17:08:43;12.77;;;2.65;;
62707;SDS011;48769;51.624;5.886;2023-03-25T17:11:13;15.15;;;3.17;;
62707;SDS011;48769;51.624;5.886;2023-03-25T17:13:50;18.92;;;3.95;;
62707;SDS011;48769;51.624;5.886;2023-03-25T17:16:18;21.00;;;2.83;;
62707;SDS011;48769;51.624;5.886;2023-03-25T17:18:46;15.80;;;3.42;;
62707;SDS011;48769;51.624;5.886;2023-03-25T17:21:19;16.75;;;3.42;;
62707;SDS011;48769;51.624;5.886;2023-03-25T17:23:50;15.60;;;3.58;;
62707;SDS011;48769;51.624;5.886;2023-03-25T17:26:18;16.67;;;2.88;;
62707;SDS011;48769;51.624;5.886;2023-03-25T17:29:05;16.67;;;3.35;;
62707;SDS011;48769;51.624;5.886;2023-03-25T17:31:37;14.98;;;3.80;;
62707;SDS011;48769;51.624;5.886;2023-03-25T17:34:13;16.23;;;3.03;;
62707;SDS011;48769;51.624;5.886;2023-03-25T17:36:45;12.85;;;2.92;;
62707;SDS011;48769;51.624;5.886;2023-03-25T17:39:16;14.90;;;2.75;;
62707;SDS011;48769;51.624;5.886;2023-03-25T17:41:44;15.15;;;3.30;;
62707;SDS011;48769;51.624;5.886;2023-03-25T17:44:14;17.33;;;3.17;;